Time;durP1;ratioP1;P1;durP2;ratioP2;P2;SDS_P1;SDS_P2;PMS_P1;PMS_P2;Temp;Humidity;BMP_temperature;BMP_pressure;BME280_temperature;BME280_humidity;BME280_pressure;Samples;Min_cycle;Max_cycle;Signal;HPM_P1;HPM_P2
2020/12/19 00:00:02;;;;;;;23.52;21.75;;;6.20;88.20;;;;;;5019794;28;20202;-78
2020/12/19 00:02:29;;;;;;;20.38;18.85;;;6.20;88.00;;;;;;5019550;28;20790;-78
2020/12/19 00:04:55;;;;;;;22.35;20.73;;;6.20;88.40;;;;;;5020931;28;20223;-78
2020/12/19 00:07:22;;;;;;;23.30;21.05;;;6.20;88.30;;;;;;5024950;28;20193;-78
2020/12/19 00:09:48;;;;;;;23.05;21.33;;;6.30;88.30;;;;;;5020372;28;20204;-78
2020/12/19 00:12:15;;;;;;;22.75;21.15;;;6.20;87.90;;;;;;5019421;28;20567;-78
2020/12/19 00:14:41;;;;;;;22.55;21.00;;;6.20;87.70;;;;;;5018914;28;20223;-78
2020/12/19 00:17:08;;;;;;;21.88;20.38;;;6.20;87.70;;;;;;5019121;28;20222;-78
2020/12/19 00:19:35;;;;;;;21.77;20.08;;;6.10;87.90;;;;;;5019135;28;20197;-78
2020/12/19 00:22:01;;;;;;;22.65;20.88;;;6.10;88.30;;;;;;5019031;28;20206;-78
2020/12/19 00:24:28;;;;;;;22.05;20.38;;;6.10;88.30;;;;;;5019191;28;20288;-78
2020/12/19 00:26:54;;;;;;;23.00;21.17;;;6.20;87.90;;;;;;5019022;28;20229;-78
2020/12/19 00:29:20;;;;;;;22.88;21.30;;;6.20;88.00;;;;;;5018753;28;20292;-78
2020/12/19 00:31:47;;;;;;;20.95;19.55;;;6.20;87.90;;;;;;5019198;28;20209;-78
2020/12/19 00:34:13;;;;;;;20.10;18.90;;;6.20;87.80;;;;;;5018993;28;20204;-78
2020/12/19 00:36:40;;;;;;;21.20;19.70;;;6.20;87.90;;;;;;5018847;28;20307;-78
2020/12/19 00:39:07;;;;;;;21.65;19.98;;;6.00;88.40;;;;;;5018705;28;20194;-78
2020/12/19 00:41:33;;;;;;;21.83;20.35;;;6.00;88.90;;;;;;5018946;28;20573;-78
2020/12/19 00:44:00;;;;;;;21.15;19.75;;;6.10;88.70;;;;;;5019100;28;20202;-78
2020/12/19 00:46:26;;;;;;;22.30;20.70;;;6.10;88.40;;;;;;5018750;28;20235;-78
2020/12/19 00:48:52;;;;;;;20.88;19.45;;;6.10;88.30;;;;;;5018975;28;20200;-78
2020/12/19 00:51:21;;;;;;;21.40;20.05;;;6.10;88.40;;;;;;5018759;28;20202;-78
2020/12/19 00:53:49;;;;;;;20.73;19.30;;;6.00;89.30;;;;;;5019028;28;20684;-78
2020/12/19 00:56:17;;;;;;;22.17;20.23;;;6.00;89.10;;;;;;5018976;28;20717;-78
2020/12/19 00:58:44;;;;;;;20.63;19.33;;;6.00;89.90;;;;;;5018860;28;20196;-78
2020/12/19 01:01:10;;;;;;;20.50;19.20;;;6.00;89.90;;;;;;5020409;28;20197;-78
2020/12/19 01:03:37;;;;;;;20.83;19.42;;;6.00;89.40;;;;;;5020411;28;20209;-78
2020/12/19 01:06:03;;;;;;;20.52;18.95;;;6.10;88.80;;;;;;5019667;28;20573;-78
2020/12/19 01:08:30;;;;;;;19.83;18.63;;;6.20;89.20;;;;;;5018427;28;20703;-78
2020/12/19 01:10:57;;;;;;;21.50;19.85;;;6.10;89.00;;;;;;5019480;28;20217;-78
2020/12/19 01:13:23;;;;;;;19.88;18.67;;;6.20;88.60;;;;;;5018658;28;20204;-78
2020/12/19 01:15:50;;;;;;;21.60;20.20;;;6.20;88.20;;;;;;5021830;28;20217;-78
2020/12/19 01:18:16;;;;;;;20.73;19.45;;;6.20;87.70;;;;;;5031201;28;20314;-78
2020/12/19 01:20:43;;;;;;;21.00;19.50;;;6.10;87.90;;;;;;5021023;28;20198;-78
2020/12/19 01:23:09;;;;;;;20.48;19.08;;;6.10;88.40;;;;;;5017287;28;20198;-78
2020/12/19 01:25:36;;;;;;;20.35;18.95;;;6.10;88.40;;;;;;5016083;28;20248;-78
2020/12/19 01:28:03;;;;;;;20.83;19.48;;;6.10;88.90;;;;;;5015605;28;20198;-77
2020/12/19 01:30:29;;;;;;;21.75;20.15;;;6.10;88.20;;;;;;5015150;28;20204;-78
2020/12/19 01:32:56;;;;;;;21.30;19.90;;;6.10;87.90;;;;;;5015317;28;20206;-78
2020/12/19 01:35:22;;;;;;;19.80;18.45;;;6.10;87.70;;;;;;5014721;28;20222;-78
2020/12/19 01:37:48;;;;;;;21.60;20.00;;;6.10;87.60;;;;;;5014929;28;20222;-77
2020/12/19 01:40:15;;;;;;;20.65;19.25;;;6.10;87.70;;;;;;5015002;28;20196;-78
2020/12/19 01:42:41;;;;;;;20.30;19.00;;;6.10;87.60;;;;;;5015020;28;20196;-78
2020/12/19 01:45:08;;;;;;;20.85;19.50;;;6.10;87.50;;;;;;5014966;28;20219;-78
2020/12/19 01:47:35;;;;;;;20.60;19.30;;;6.10;87.60;;;;;;5014581;28;20194;-78
2020/12/19 01:50:04;;;;;;;21.92;20.33;;;6.00;87.60;;;;;;5014767;28;20661;-78
2020/12/19 01:52:31;;;;;;;19.40;18.08;;;6.00;87.80;;;;;;5014908;28;20202;-78
2020/12/19 01:54:58;;;;;;;21.67;20.27;;;5.90;87.90;;;;;;5014684;28;20203;-77
2020/12/19 01:57:26;;;;;;;20.70;19.20;;;5.90;88.10;;;;;;5014471;28;20199;-78
2020/12/19 01:59:54;;;;;;;20.50;19.30;;;5.80;88.20;;;;;;5014865;28;20203;-78
2020/12/19 02:02:23;;;;;;;22.05;20.15;;;5.80;89.20;;;;;;5019530;28;20220;-77
2020/12/19 02:04:50;;;;;;;20.58;19.27;;;5.70;90.10;;;;;;5018661;28;20613;-77
2020/12/19 02:07:17;;;;;;;22.25;20.73;;;5.70;89.90;;;;;;5014274;28;20711;-78
2020/12/19 02:09:44;;;;;;;20.67;19.38;;;5.70;89.50;;;;;;5014435;28;20566;-78
2020/12/19 02:12:11;;;;;;;20.90;19.33;;;5.70;89.20;;;;;;5014621;28;20207;-78
2020/12/19 02:14:38;;;;;;;23.70;20.70;;;5.70;88.90;;;;;;5014447;28;20210;-78
2020/12/19 02:17:07;;;;;;;21.35;20.00;;;5.70;88.70;;;;;;5013625;28;20226;-78
2020/12/19 02:19:35;;;;;;;33.35;21.60;;;5.60;88.90;;;;;;5014435;28;20198;-78
2020/12/19 02:22:02;;;;;;;134.75;27.45;;;5.60;88.90;;;;;;5015051;28;20196;-78
2020/12/19 02:24:29;;;;;;;21.17;19.70;;;5.40;89.70;;;;;;5015653;28;20200;-78
2020/12/19 02:26:57;;;;;;;21.10;19.80;;;5.30;90.60;;;;;;5013593;28;20718;-78
2020/12/19 02:29:25;;;;;;;21.58;20.05;;;5.50;90.00;;;;;;5014214;28;20255;-78
2020/12/19 02:31:52;;;;;;;21.02;19.67;;;5.50;89.30;;;;;;5014364;28;20194;-78
2020/12/19 02:34:19;;;;;;;20.88;19.67;;;5.50;89.40;;;;;;5014055;28;20570;-78
2020/12/19 02:36:45;;;;;;;21.83;20.42;;;5.50;89.10;;;;;;5013643;28;20214;-78
2020/12/19 02:39:12;;;;;;;20.67;19.48;;;5.50;89.30;;;;;;5013781;28;20190;-78
2020/12/19 02:41:41;;;;;;;21.70;20.00;;;5.40;89.50;;;;;;5013899;28;20201;-78
2020/12/19 02:44:09;;;;;;;20.75;19.25;;;5.40;89.80;;;;;;5013807;28;20186;-78
2020/12/19 02:46:35;;;;;;;20.38;19.08;;;5.50;89.90;;;;;;5014916;28;20221;-77
2020/12/19 02:49:02;;;;;;;21.38;20.05;;;5.50;89.60;;;;;;5013983;28;20221;-77
2020/12/19 02:51:28;;;;;;;20.45;19.15;;;5.50;89.40;;;;;;4994356;28;20203;-77
2020/12/19 02:53:55;;;;;;;21.83;20.13;;;5.50;89.30;;;;;;4994389;28;20206;-77
2020/12/19 02:56:21;;;;;;;20.88;19.52;;;5.50;89.30;;;;;;4993851;28;20225;-78
2020/12/19 02:58:48;;;;;;;20.00;18.70;;;5.50;89.10;;;;;;4999386;28;20661;-78
2020/12/19 03:01:15;;;;;;;19.88;18.67;;;5.50;89.20;;;;;;5015766;28;20201;-78
2020/12/19 03:03:41;;;;;;;18.67;17.60;;;5.50;89.30;;;;;;5022120;28;20204;-78
2020/12/19 03:06:07;;;;;;;21.05;19.67;;;5.60;89.50;;;;;;5020750;28;20222;-78
2020/12/19 03:08:34;;;;;;;20.48;19.17;;;5.60;89.40;;;;;;5014340;28;20742;-78
2020/12/19 03:11:00;;;;;;;19.48;18.27;;;5.60;89.10;;;;;;5013889;28;20554;-78
2020/12/19 03:13:27;;;;;;;20.17;18.77;;;5.50;88.80;;;;;;5013522;28;20203;-78
2020/12/19 03:15:54;;;;;;;20.30;18.95;;;5.50;89.10;;;;;;5014767;28;20695;-78
2020/12/19 03:18:20;;;;;;;19.80;18.60;;;5.50;89.10;;;;;;5013635;28;20208;-78
2020/12/19 03:20:46;;;;;;;21.17;19.77;;;5.50;89.30;;;;;;5013484;28;20198;-78
2020/12/19 03:23:13;;;;;;;19.77;18.58;;;5.50;89.10;;;;;;5013348;28;20206;-78
2020/12/19 03:25:39;;;;;;;20.42;19.05;;;5.60;89.10;;;;;;5012720;28;20223;-78
2020/12/19 03:28:05;;;;;;;20.98;19.67;;;5.50;88.80;;;;;;5012488;28;20229;-78
2020/12/19 03:30:32;;;;;;;20.88;19.35;;;5.50;89.00;;;;;;5013312;28;20202;-78
2020/12/19 03:32:59;;;;;;;20.95;19.40;;;5.50;88.90;;;;;;5013105;28;20198;-78
2020/12/19 03:35:25;;;;;;;20.80;19.45;;;5.50;88.70;;;;;;5012114;28;20215;-78
2020/12/19 03:37:52;;;;;;;20.80;19.42;;;5.40;88.90;;;;;;5013061;28;20213;-78
2020/12/19 03:40:19;;;;;;;19.50;18.30;;;5.40;89.00;;;;;;5012837;28;20207;-78
2020/12/19 03:42:45;;;;;;;20.08;18.88;;;5.30;89.00;;;;;;5013092;28;20282;-78
2020/12/19 03:45:11;;;;;;;20.13;18.92;;;5.40;89.60;;;;;;5012886;28;20197;-78
2020/12/19 03:47:38;;;;;;;18.98;17.77;;;5.40;89.60;;;;;;5012751;28;20199;-78
2020/12/19 03:50:06;;;;;;;20.48;18.80;;;5.40;89.80;;;;;;5012655;28;20188;-78
2020/12/19 03:52:32;;;;;;;19.85;18.50;;;5.40;89.50;;;;;;5013192;28;20201;-78
2020/12/19 03:54:59;;;;;;;20.10;18.90;;;5.30;89.50;;;;;;5012513;28;20190;-78
2020/12/19 03:57:25;;;;;;;19.83;18.63;;;5.30;89.50;;;;;;5014836;28;20683;-78
2020/12/19 03:59:51;;;;;;;20.77;19.35;;;5.30;90.00;;;;;;5020825;28;20347;-78
2020/12/19 04:02:18;;;;;;;20.48;19.08;;;5.30;89.50;;;;;;5012979;28;20199;-78
2020/12/19 04:04:44;;;;;;;19.73;18.52;;;5.30;89.70;;;;;;5012553;28;20253;-78
2020/12/19 04:07:12;;;;;;;20.65;19.38;;;5.30;89.80;;;;;;5012556;28;20222;-78
2020/12/19 04:09:38;;;;;;;20.70;19.27;;;5.30;89.80;;;;;;5012837;28;20679;-78
2020/12/19 04:12:05;;;;;;;19.95;18.65;;;5.20;90.20;;;;;;5020076;23;20242;-78
2020/12/19 04:14:37;;;;;;;20.30;19.10;;;5.30;90.00;;;;;;5012214;28;20202;-77
2020/12/19 04:17:05;;;;;;;20.08;19.08;;;5.30;89.70;;;;;;5011384;28;20267;-77
2020/12/19 04:19:32;;;;;;;21.20;19.73;;;5.30;89.60;;;;;;5013269;28;20199;-79
2020/12/19 04:21:58;;;;;;;19.33;18.17;;;5.30;89.60;;;;;;5012791;28;20252;-78
2020/12/19 04:24:26;;;;;;;18.92;17.83;;;5.30;89.60;;;;;;5012878;28;20613;-78
2020/12/19 04:26:53;;;;;;;18.98;17.88;;;5.30;89.70;;;;;;5011942;28;20218;-77
2020/12/19 04:29:19;;;;;;;19.10;17.95;;;5.30;89.80;;;;;;5012709;28;20207;-78
2020/12/19 04:31:46;;;;;;;19.63;18.52;;;5.30;90.10;;;;;;5012531;28;20663;-78
2020/12/19 04:34:12;;;;;;;19.13;18.10;;;5.20;90.00;;;;;;5012360;28;20559;-78
2020/12/19 04:36:39;;;;;;;20.20;18.85;;;5.20;89.70;;;;;;5012214;28;20213;-78
2020/12/19 04:39:05;;;;;;;19.75;18.55;;;5.20;89.70;;;;;;5014028;28;20285;-78
2020/12/19 04:41:33;;;;;;;19.67;18.33;;;5.20;89.60;;;;;;5015702;28;20194;-78
2020/12/19 04:44:02;;;;;;;20.58;19.17;;;5.20;90.10;;;;;;5014880;28;20190;-78
2020/12/19 04:46:30;;;;;;;1336.30;179.85;;;5.20;89.90;;;;;;5015767;28;20364;-78
2020/12/19 04:48:57;;;;;;;19.42;18.23;;;5.20;90.70;;;;;;5015865;28;20194;-78
2020/12/19 04:51:26;;;;;;;19.70;18.50;;;5.10;92.80;;;;;;5016007;28;20196;-78
2020/12/19 04:53:52;;;;;;;18.80;17.50;;;5.10;91.90;;;;;;5016123;28;20575;-77
2020/12/19 04:56:19;;;;;;;19.42;18.25;;;5.20;91.10;;;;;;5015860;28;20210;-78
2020/12/19 04:58:49;;;;;;;18.98;17.88;;;5.10;90.30;;;;;;5018114;28;20656;-78
2020/12/19 05:01:15;;;;;;;21.13;19.60;;;5.10;90.30;;;;;;5016145;28;20209;-77
2020/12/19 05:03:45;;;;;;;21.23;19.73;;;5.10;90.00;;;;;;5016534;28;20289;-78
2020/12/19 05:06:11;;;;;;;20.13;18.45;;;5.00;90.40;;;;;;5015637;28;20225;-78
2020/12/19 05:08:39;;;;;;;18.33;17.23;;;5.10;90.70;;;;;;5015865;28;20688;-77
2020/12/19 05:11:06;;;;;;;20.77;19.38;;;5.10;90.70;;;;;;5015844;28;20649;-78
2020/12/19 05:13:32;;;;;;;18.73;17.70;;;5.10;91.80;;;;;;5015830;28;20208;-78
2020/12/19 05:15:59;;;;;;;19.23;18.13;;;5.00;90.80;;;;;;5015198;28;20218;-78
2020/12/19 05:18:26;;;;;;;20.23;19.02;;;5.00;91.00;;;;;;5015769;28;20643;-78
2020/12/19 05:20:54;;;;;;;19.35;18.25;;;5.00;90.80;;;;;;5015634;28;20221;-78
2020/12/19 05:23:20;;;;;;;20.77;19.48;;;4.90;90.80;;;;;;5015615;28;20689;-78
2020/12/19 05:25:49;;;;;;;18.75;17.75;;;4.90;90.90;;;;;;5015024;28;20233;-78
2020/12/19 05:28:16;;;;;;;20.00;18.80;;;5.00;90.70;;;;;;5015113;28;20198;-78
2020/12/19 05:30:42;;;;;;;48.60;22.63;;;5.00;90.40;;;;;;5015354;28;20663;-78
2020/12/19 05:33:11;;;;;;;19.60;18.50;;;4.90;93.10;;;;;;5015532;28;20559;-78
2020/12/19 05:35:39;;;;;;;19.42;18.13;;;5.00;92.60;;;;;;5014781;28;20210;-78
2020/12/19 05:38:06;;;;;;;19.90;18.70;;;5.00;91.60;;;;;;5014894;28;20195;-78
2020/12/19 05:40:34;;;;;;;20.17;18.77;;;4.90;91.20;;;;;;5014827;28;20289;-78
2020/12/19 05:43:01;;;;;;;19.60;18.50;;;5.00;91.10;;;;;;5015228;28;20195;-78
2020/12/19 05:45:29;;;;;;;20.60;19.38;;;5.00;90.90;;;;;;5014973;28;20219;-78
2020/12/19 05:47:56;;;;;;;20.52;19.15;;;5.00;90.70;;;;;;5015092;28;20194;-78
2020/12/19 05:50:24;;;;;;;20.40;19.10;;;4.90;90.80;;;;;;5014150;28;20289;-78
2020/12/19 05:52:50;;;;;;;21.13;19.33;;;5.00;90.80;;;;;;5014957;28;20211;-78
2020/12/19 05:55:18;;;;;;;20.10;18.80;;;5.00;91.70;;;;;;5014861;28;20309;-78
2020/12/19 05:57:45;;;;;;;20.35;19.00;;;5.00;91.10;;;;;;5015204;28;20198;-78
2020/12/19 06:00:13;;;;;;;22.08;20.55;;;5.00;91.00;;;;;;5021856;28;20243;-78
2020/12/19 06:02:40;;;;;;;20.08;18.77;;;4.90;90.90;;;;;;5020959;28;20193;-78
2020/12/19 06:05:08;;;;;;;21.00;19.50;;;4.90;91.20;;;;;;5020950;28;20224;-78
2020/12/19 06:07:39;;;;;;;20.23;18.83;;;4.90;91.40;;;;;;5018247;28;20219;-78
2020/12/19 06:10:07;;;;;;;20.73;19.42;;;4.80;91.50;;;;;;5014636;28;20196;-78
2020/12/19 06:12:54;;;;;;;21.00;19.60;;;4.90;91.50;;;;;;5014459;28;20206;-78
2020/12/19 06:15:31;;;;;;;294.50;44.97;;;4.90;91.90;;;;;;5014607;28;20228;-80
2020/12/19 06:18:02;;;;;;;20.38;18.88;;;4.90;93.70;;;;;;5014576;28;20209;-78
2020/12/19 06:20:30;;;;;;;23.35;21.75;;;4.90;93.40;;;;;;5014148;28;20197;-78
2020/12/19 06:22:58;;;;;;;19.95;18.75;;;4.90;92.40;;;;;;5014455;28;20667;-78
2020/12/19 06:25:41;;;;;;;20.58;19.30;;;4.90;91.70;;;;;;5015260;28;20212;-78
2020/12/19 06:28:08;;;;;;;20.27;18.98;;;4.90;91.70;;;;;;5015485;28;20202;-78
2020/12/19 06:30:35;;;;;;;21.40;19.90;;;4.90;91.40;;;;;;5014528;28;20190;-78
2020/12/19 06:33:12;;;;;;;338.23;55.25;;;4.80;91.70;;;;;;5014371;28;20198;-78
2020/12/19 06:35:47;;;;;;;1049.15;127.85;;;4.80;91.90;;;;;;5014578;28;20215;-78
2020/12/19 06:38:14;;;;;;;22.80;21.20;;;4.80;93.40;;;;;;5014790;28;20194;-78
2020/12/19 06:40:41;;;;;;;21.05;19.67;;;4.70;93.50;;;;;;5014119;28;20205;-78
2020/12/19 06:43:12;;;;;;;21.63;20.23;;;4.60;93.10;;;;;;5014291;28;20273;-78
2020/12/19 06:45:38;;;;;;;22.05;20.42;;;4.60;92.60;;;;;;5014217;28;20214;-78
2020/12/19 06:48:25;;;;;;;21.98;20.58;;;4.60;92.50;;;;;;5014550;28;20202;-78
2020/12/19 06:50:57;;;;;;;265.30;48.28;;;4.60;92.60;;;;;;5014076;28;20198;-78
2020/12/19 06:53:25;;;;;;;74.63;25.60;;;4.50;94.10;;;;;;5015281;28;20651;-78
2020/12/19 06:55:52;;;;;;;1999.90;809.47;;;4.60;99.10;;;;;;5014451;28;20225;-78
2020/12/19 06:58:32;;;;;;;20.45;19.02;;;4.60;99.90;;;;;;5014382;28;20625;-78
2020/12/19 07:01:00;;;;;;;20.08;18.52;;;4.50;99.70;;;;;;5013841;28;20252;-77
2020/12/19 07:03:40;;;;;;;22.20;19.95;;;4.50;98.30;;;;;;5014301;28;20195;-78
2020/12/19 07:06:12;;;;;;;20.80;19.23;;;4.40;96.60;;;;;;5013329;28;20283;-78
2020/12/19 07:08:39;;;;;;;22.73;21.20;;;4.30;96.10;;;;;;5013820;28;20197;-78
2020/12/19 07:11:10;;;;;;;20.70;19.48;;;4.20;95.70;;;;;;5014680;28;20283;-78
2020/12/19 07:13:54;;;;;;;20.10;18.88;;;4.30;97.50;;;;;;5014540;28;20561;-78
2020/12/19 07:16:48;;;;;;;22.33;20.55;;;4.30;97.00;;;;;;5014376;28;20221;-78
2020/12/19 07:19:21;;;;;;;19.85;18.55;;;4.40;98.10;;;;;;5013564;28;20194;-78
2020/12/19 07:21:49;;;;;;;19.77;18.55;;;4.40;96.80;;;;;;5013984;28;20221;-78
2020/12/19 07:24:15;;;;;;;21.08;19.48;;;4.40;95.90;;;;;;5013933;28;20691;-78
2020/12/19 07:26:42;;;;;;;21.15;19.73;;;4.40;95.20;;;;;;5014018;28;20223;-78
2020/12/19 07:29:19;;;;;;;22.48;20.92;;;4.40;94.40;;;;;;5013184;28;20198;-78
2020/12/19 07:31:47;;;;;;;22.30;20.80;;;4.50;94.10;;;;;;5013276;28;20224;-78
2020/12/19 07:34:14;;;;;;;22.48;20.05;;;4.60;94.50;;;;;;5012960;28;20674;-78
2020/12/19 07:36:41;;;;;;;77.85;24.67;;;4.60;93.50;;;;;;5012933;28;20224;-78
2020/12/19 07:39:09;;;;;;;21.13;19.75;;;4.60;93.80;;;;;;5012793;28;20190;-78
2020/12/19 07:41:37;;;;;;;22.65;21.15;;;4.60;93.70;;;;;;5013694;28;20197;-78
2020/12/19 07:44:17;;;;;;;21.63;20.08;;;4.60;93.50;;;;;;5013273;28;20233;-78
2020/12/19 07:46:52;;;;;;;22.67;21.20;;;4.80;92.90;;;;;;5013065;28;20229;-78
2020/12/19 07:49:44;;;;;;;21.77;19.75;;;4.80;92.30;;;;;;5013442;28;20718;-78
2020/12/19 07:52:20;;;;;;;25.75;21.30;;;4.80;91.70;;;;;;5013096;28;20202;-78
2020/12/19 07:54:57;;;;;;;30.08;21.58;;;4.90;91.40;;;;;;5015313;28;20732;-78
2020/12/19 07:57:24;;;;;;;25.80;21.90;;;4.90;93.30;;;;;;5019823;28;20194;-78
2020/12/19 07:59:53;;;;;;;24.35;22.08;;;5.00;91.80;;;;;;5013311;28;20201;-78
2020/12/19 08:02:20;;;;;;;23.15;21.08;;;4.90;92.90;;;;;;5013554;28;20206;-78
2020/12/19 08:04:56;;;;;;;20.95;19.50;;;5.00;92.10;;;;;;5014239;28;20356;-78
2020/12/19 08:07:25;;;;;;;21.63;19.92;;;5.00;92.60;;;;;;5014434;28;20213;-78
2020/12/19 08:10:03;;;;;;;57.13;27.23;;;5.00;92.00;;;;;;5014857;28;20290;-78
2020/12/19 08:12:30;;;;;;;42.22;25.20;;;5.10;91.80;;;;;;5014697;28;20676;-78
2020/12/19 08:14:59;;;;;;;39.38;22.92;;;5.10;90.70;;;;;;5016489;28;20669;-78
2020/12/19 08:17:27;;;;;;;29.90;22.85;;;5.20;90.60;;;;;;5016928;28;20253;-78
2020/12/19 08:19:57;;;;;;;116.93;32.70;;;5.20;90.50;;;;;;5017469;28;20206;-78
2020/12/19 08:22:24;;;;;;;289.33;47.38;;;5.20;91.80;;;;;;5017138;28;20197;-78
2020/12/19 08:24:51;;;;;;;25.85;23.38;;;5.30;91.40;;;;;;5016935;28;20603;-78
2020/12/19 08:27:43;;;;;;;27.65;24.38;;;5.40;91.20;;;;;;5017654;28;20223;-78
2020/12/19 08:30:18;;;;;;;38.85;25.52;;;5.40;90.50;;;;;;5017397;28;20198;-78
2020/12/19 08:32:46;;;;;;;25.20;22.83;;;5.50;89.20;;;;;;5017345;28;20660;-78
2020/12/19 08:35:23;;;;;;;24.52;22.13;;;5.50;88.60;;;;;;5016541;28;20254;-78
2020/12/19 08:37:51;;;;;;;24.95;22.75;;;5.50;89.20;;;;;;5017888;28;20661;-78
2020/12/19 08:40:20;;;;;;;24.13;21.90;;;5.40;89.70;;;;;;5017706;28;20203;-78
2020/12/19 08:42:49;;;;;;;30.17;24.20;;;5.50;89.70;;;;;;5017368;28;20256;-78
2020/12/19 08:45:21;;;;;;;25.48;23.05;;;5.50;91.00;;;;;;5016532;28;20278;-78
2020/12/19 08:47:51;;;;;;;25.20;23.40;;;5.70;90.20;;;;;;5016979;28;20268;-78
2020/12/19 08:50:22;;;;;;;25.13;23.10;;;5.70;89.60;;;;;;5016696;28;20200;-78
2020/12/19 08:52:48;;;;;;;22.08;20.58;;;5.90;89.10;;;;;;5017773;28;20659;-78
2020/12/19 08:55:23;;;;;;;25.08;23.25;;;6.00;87.50;;;;;;5017127;28;20222;-78
2020/12/19 08:57:50;;;;;;;23.27;21.52;;;6.10;86.80;;;;;;5017528;28;20286;-78
2020/12/19 09:00:16;;;;;;;24.23;22.63;;;6.20;87.50;;;;;;5015860;28;20198;-78
2020/12/19 09:02:43;;;;;;;24.08;22.55;;;6.30;87.20;;;;;;5016189;28;20677;-78
2020/12/19 09:05:10;;;;;;;27.30;24.42;;;6.30;86.80;;;;;;5016012;28;20240;-78
2020/12/19 09:07:37;;;;;;;42.78;25.45;;;6.30;87.70;;;;;;5015778;28;20229;-78
2020/12/19 09:10:22;;;;;;;100.45;31.77;;;6.30;88.20;;;;;;5015854;28;20656;-78
2020/12/19 09:12:48;;;;;;;39.38;25.05;;;6.40;88.10;;;;;;5023178;28;20216;-78
2020/12/19 09:15:19;;;;;;;28.73;24.38;;;6.40;87.50;;;;;;5023207;28;20308;-78
2020/12/19 09:17:45;;;;;;;24.10;22.40;;;6.50;86.60;;;;;;5016092;28;20281;-78
2020/12/19 09:20:11;;;;;;;24.45;22.55;;;6.60;86.00;;;;;;5015902;28;20186;-78
2020/12/19 09:22:38;;;;;;;25.23;22.92;;;6.70;85.40;;;;;;5015496;28;20194;-78
2020/12/19 09:25:04;;;;;;;28.58;22.58;;;6.70;85.80;;;;;;5014105;28;20209;-78
2020/12/19 09:27:30;;;;;;;23.45;21.75;;;6.80;85.50;;;;;;5015395;28;20229;-78
2020/12/19 09:29:57;;;;;;;23.23;21.83;;;6.90;86.00;;;;;;5015369;28;20333;-78
2020/12/19 09:32:24;;;;;;;26.90;24.75;;;7.00;84.80;;;;;;5015497;28;20198;-78
2020/12/19 09:34:50;;;;;;;25.88;23.73;;;7.10;85.10;;;;;;5015972;28;20198;-78
2020/12/19 09:37:17;;;;;;;27.40;24.77;;;7.20;83.50;;;;;;5015132;28;20230;-78
2020/12/19 09:39:43;;;;;;;25.95;23.80;;;7.30;83.30;;;;;;5014908;28;20197;-78
2020/12/19 09:42:09;;;;;;;24.15;22.55;;;7.30;83.90;;;;;;5015040;28;20186;-78
2020/12/19 09:44:36;;;;;;;25.23;23.42;;;7.40;82.90;;;;;;5015018;28;20190;-78
2020/12/19 09:47:02;;;;;;;37.70;25.88;;;7.50;83.20;;;;;;5014750;28;20564;-78
2020/12/19 09:49:30;;;;;;;26.55;24.58;;;7.60;83.20;;;;;;5015061;28;20198;-78
2020/12/19 09:51:56;;;;;;;56.08;31.02;;;7.60;83.90;;;;;;5019410;28;20244;-78
2020/12/19 09:54:22;;;;;;;30.15;27.00;;;7.70;83.10;;;;;;5020065;28;20281;-78
2020/12/19 09:56:49;;;;;;;26.70;24.90;;;7.80;82.40;;;;;;5014653;28;20271;-78
2020/12/19 09:59:15;;;;;;;27.45;24.88;;;7.90;82.10;;;;;;5014914;28;20679;-78
2020/12/19 10:01:41;;;;;;;28.58;26.27;;;7.90;81.50;;;;;;5014501;28;20194;-78
2020/12/19 10:04:08;;;;;;;27.77;25.67;;;7.90;81.50;;;;;;5015548;28;20216;-78
2020/12/19 10:06:35;;;;;;;28.02;25.70;;;8.00;81.50;;;;;;5015018;28;20238;-78
2020/12/19 10:09:01;;;;;;;28.45;26.30;;;8.10;81.80;;;;;;5015544;28;20225;-78
2020/12/19 10:11:28;;;;;;;28.45;26.25;;;8.20;81.70;;;;;;5016370;28;20659;-78
2020/12/19 10:13:54;;;;;;;29.20;26.88;;;8.20;81.00;;;;;;5014942;28;20202;-78
2020/12/19 10:16:21;;;;;;;29.90;27.83;;;8.30;80.80;;;;;;5014547;28;20218;-78
2020/12/19 10:18:47;;;;;;;32.58;29.75;;;8.30;80.60;;;;;;5015060;28;20561;-78
2020/12/19 10:21:13;;;;;;;120.13;33.17;;;8.40;81.00;;;;;;5015434;28;20198;-78
2020/12/19 10:23:41;;;;;;;34.22;27.50;;;8.60;79.40;;;;;;5014912;28;20198;-78
2020/12/19 10:26:10;;;;;;;29.08;26.15;;;8.70;79.20;;;;;;5014559;28;20236;-78
2020/12/19 10:28:37;;;;;;;25.77;23.60;;;8.80;78.90;;;;;;5014713;28;20198;-78
2020/12/19 10:31:04;;;;;;;25.38;23.77;;;9.00;78.10;;;;;;5014606;28;20256;-78
2020/12/19 10:33:30;;;;;;;24.88;22.83;;;9.10;77.40;;;;;;5014488;28;20275;-78
2020/12/19 10:35:57;;;;;;;25.73;23.92;;;9.20;76.40;;;;;;5014096;28;20206;-78
2020/12/19 10:38:23;;;;;;;26.47;24.30;;;9.40;74.80;;;;;;5014337;28;20578;-78
2020/12/19 10:40:50;;;;;;;26.45;24.70;;;9.50;74.40;;;;;;5013701;28;20457;-78
2020/12/19 10:43:18;;;;;;;26.35;24.55;;;9.60;73.80;;;;;;5014252;28;20216;-78
2020/12/19 10:45:45;;;;;;;25.83;24.13;;;9.80;73.60;;;;;;5014419;28;20210;-78
2020/12/19 10:48:12;;;;;;;27.37;25.47;;;9.90;73.40;;;;;;5013957;28;20450;-78
2020/12/19 10:50:38;;;;;;;27.63;25.80;;;10.00;73.00;;;;;;5014817;28;20451;-78
2020/12/19 10:53:04;;;;;;;25.43;23.63;;;10.20;72.40;;;;;;5014408;28;20453;-78
2020/12/19 10:55:31;;;;;;;24.93;23.53;;;10.20;71.90;;;;;;5014417;28;20480;-78
2020/12/19 10:57:58;;;;;;;25.60;23.80;;;10.30;70.60;;;;;;5014828;28;20505;-78
2020/12/19 11:00:24;;;;;;;25.57;23.77;;;10.50;70.00;;;;;;5013738;28;20491;-78
2020/12/19 11:02:51;;;;;;;25.07;23.67;;;10.60;70.40;;;;;;5014227;28;20455;-78
2020/12/19 11:05:17;;;;;;;25.47;23.97;;;10.70;69.40;;;;;;5014627;28;20526;-78
2020/12/19 11:07:43;;;;;;;25.93;24.03;;;10.80;69.10;;;;;;5012912;28;20473;-78
2020/12/19 11:10:10;;;;;;;25.47;23.97;;;10.80;69.30;;;;;;5013832;28;20456;-78
2020/12/19 11:12:36;;;;;;;25.60;24.10;;;10.90;68.60;;;;;;5013731;28;20464;-78
2020/12/19 11:15:03;;;;;;;27.00;25.33;;;11.00;68.60;;;;;;5014378;28;20537;-78
2020/12/19 11:17:30;;;;;;;27.20;25.33;;;11.00;68.60;;;;;;5013202;28;20453;-78
2020/12/19 11:19:56;;;;;;;29.07;27.23;;;11.10;68.30;;;;;;5013280;28;21087;-78
2020/12/19 11:22:22;;;;;;;26.80;25.00;;;11.20;68.30;;;;;;5013493;28;20453;-78
2020/12/19 11:24:49;;;;;;;26.70;24.80;;;11.30;68.00;;;;;;5013282;28;20453;-78
2020/12/19 11:27:15;;;;;;;26.60;25.00;;;11.50;67.50;;;;;;5012743;28;20970;-78
2020/12/19 11:29:41;;;;;;;26.60;24.70;;;11.50;67.70;;;;;;5013382;28;20461;-78
2020/12/19 11:32:08;;;;;;;26.13;24.33;;;11.60;66.90;;;;;;5013166;28;20456;-78
2020/12/19 11:34:36;;;;;;;26.60;24.80;;;11.70;66.70;;;;;;5013093;28;20471;-78
2020/12/19 11:37:02;;;;;;;26.10;24.20;;;11.80;66.20;;;;;;5012931;28;20495;-78
2020/12/19 11:39:28;;;;;;;26.53;24.83;;;11.90;65.60;;;;;;5013208;28;20463;-78
2020/12/19 11:42:00;;;;;;;25.93;24.27;;;12.00;65.50;;;;;;5013169;28;20476;-78
2020/12/19 11:44:27;;;;;;;28.30;26.60;;;12.10;65.60;;;;;;5013453;28;20461;-78
2020/12/19 11:46:53;;;;;;;27.27;25.50;;;12.20;65.00;;;;;;5013130;28;20536;-78
2020/12/19 11:49:20;;;;;;;27.07;25.40;;;12.40;64.20;;;;;;5019327;28;20465;-78
2020/12/19 11:51:47;;;;;;;26.60;24.57;;;12.40;64.20;;;;;;5014573;28;20452;-77
2020/12/19 11:54:13;;;;;;;27.70;25.93;;;12.50;63.50;;;;;;5013380;28;20592;-78
2020/12/19 11:56:39;;;;;;;26.70;25.00;;;12.50;63.70;;;;;;5012956;28;20469;-78
2020/12/19 11:59:07;;;;;;;27.70;25.90;;;12.60;63.50;;;;;;5013245;28;20488;-78
2020/12/19 12:01:33;;;;;;;27.53;25.80;;;12.80;62.70;;;;;;5013231;28;20453;-78
2020/12/19 12:03:59;;;;;;;28.97;27.17;;;12.80;62.90;;;;;;5013251;28;20453;-78
2020/12/19 12:06:28;;;;;;;28.73;26.63;;;13.00;62.90;;;;;;5013321;28;20489;-78
2020/12/19 12:08:54;;;;;;;28.63;26.63;;;13.10;63.40;;;;;;5012658;28;20457;-78
2020/12/19 12:11:25;;;;;;;28.37;26.57;;;13.30;63.00;;;;;;5013155;28;20452;-78
2020/12/19 12:13:52;;;;;;;29.93;27.37;;;13.50;62.80;;;;;;5012851;28;20449;-78
2020/12/19 12:16:19;;;;;;;29.13;27.13;;;13.60;61.40;;;;;;5012254;28;20831;-78
2020/12/19 12:18:45;;;;;;;28.03;26.43;;;13.70;60.90;;;;;;5014096;28;20449;-78
2020/12/19 12:21:12;;;;;;;27.60;25.90;;;13.70;61.60;;;;;;5019023;28;20461;-78
2020/12/19 12:23:39;;;;;;;27.40;25.63;;;13.70;60.40;;;;;;5019143;28;20511;-78
2020/12/19 12:26:06;;;;;;;26.27;24.63;;;13.80;58.90;;;;;;5013551;28;20474;-78
2020/12/19 12:28:32;;;;;;;25.97;24.40;;;13.80;58.70;;;;;;5013887;28;20461;-78
2020/12/19 12:30:59;;;;;;;26.07;24.53;;;13.80;58.40;;;;;;5012898;28;20457;-78
2020/12/19 12:33:25;;;;;;;25.23;23.83;;;13.70;58.20;;;;;;5012683;28;20445;-78
2020/12/19 12:35:51;;;;;;;25.23;23.73;;;13.70;58.00;;;;;;5012248;28;20484;-78
2020/12/19 12:38:18;;;;;;;24.90;23.30;;;13.70;58.20;;;;;;5012504;28;21065;-78